Time;durP1;ratioP1;P1;durP2;ratioP2;P2;SDS_P1;SDS_P2;PMS_P1;PMS_P2;Temp;Humidity;BMP_temperature;BMP_pressure;BME280_temperature;BME280_humidity;BME280_pressure;Samples;Min_cycle;Max_cycle;Signal;HPM_P1;HPM_P2
2022/03/26 00:01:49;;;;;;;0.20;0.20;;;5.90;99.90;;;;;;5036749;28;20049;-65
2022/03/26 00:04:16;;;;;;;0.00;0.00;;;5.90;99.90;;;;;;5029335;28;20034;-65
2022/03/26 00:06:41;;;;;;;0.00;0.00;;;7.00;99.90;;;;;;5023419;28;20056;-66
2022/03/26 00:09:07;;;;;;;0.00;0.00;;;5.80;99.90;;;;;;5023688;28;20453;-66
2022/03/26 00:11:33;;;;;;;0.08;0.08;;;5.80;99.90;;;;;;5023585;28;20454;-65
2022/03/26 00:13:59;;;;;;;0.00;0.00;;;5.80;99.90;;;;;;5022588;28;20057;-66
2022/03/26 00:16:25;;;;;;;0.00;0.00;;;5.70;99.90;;;;;;5023156;28;20050;-65
2022/03/26 00:18:50;;;;;;;0.00;0.00;;;5.70;99.90;;;;;;5005526;28;20049;-66
2022/03/26 00:21:16;;;;;;;0.10;0.10;;;5.80;99.90;;;;;;5021712;28;20076;-66
2022/03/26 00:23:42;;;;;;;0.00;0.00;;;5.70;99.90;;;;;;5005199;28;20124;-66
2022/03/26 00:26:10;;;;;;;0.00;0.00;;;5.70;99.90;;;;;;5023095;28;20172;-65
2022/03/26 00:28:37;;;;;;;0.00;0.00;;;5.70;99.90;;;;;;5022594;28;20490;-66
2022/03/26 00:31:06;;;;;;;0.00;0.00;;;5.60;99.90;;;;;;5023932;28;20416;-66
2022/03/26 00:33:32;;;;;;;0.00;0.00;;;5.60;99.90;;;;;;5023515;28;20070;-65
2022/03/26 00:35:58;;;;;;;0.00;0.00;;;5.60;99.90;;;;;;5021491;28;20053;-66
2022/03/26 00:38:24;;;;;;;0.00;0.00;;;5.50;99.90;;;;;;5022954;28;20038;-66
2022/03/26 00:40:50;;;;;;;0.00;0.00;;;5.50;99.90;;;;;;5023021;28;20052;-66
2022/03/26 00:43:16;;;;;;;0.00;0.00;;;5.50;99.90;;;;;;5021098;28;20500;-66
2022/03/26 00:45:43;;;;;;;0.00;0.00;;;5.50;99.90;;;;;;5021315;28;20044;-66
2022/03/26 00:48:09;;;;;;;0.00;0.00;;;5.50;99.90;;;;;;5022547;28;20381;-66
2022/03/26 00:50:35;;;;;;;0.00;0.00;;;5.50;99.90;;;;;;5022354;28;20049;-66
2022/03/26 00:53:01;;;;;;;0.10;0.10;;;5.50;99.90;;;;;;5022985;28;20175;-66
2022/03/26 00:55:27;;;;;;;0.10;0.10;;;5.50;99.90;;;;;;5022462;28;20057;-66
2022/03/26 00:57:53;;;;;;;0.00;0.00;;;5.50;99.90;;;;;;5022382;28;20041;-66
2022/03/26 01:00:18;;;;;;;0.00;0.00;;;5.50;99.90;;;;;;5022105;28;20052;-66
2022/03/26 01:02:44;;;;;;;0.00;0.00;;;5.40;99.90;;;;;;5033511;28;20047;-65
2022/03/26 01:05:13;;;;;;;0.00;0.00;;;5.50;99.90;;;;;;5021979;28;20038;-66
2022/03/26 01:07:39;;;;;;;0.00;0.00;;;5.40;99.90;;;;;;5004755;28;20049;-66
2022/03/26 01:10:07;;;;;;;0.00;0.00;;;5.40;99.90;;;;;;5022585;28;20464;-66
2022/03/26 01:12:33;;;;;;;0.65;0.45;;;5.30;99.90;;;;;;5022790;28;20045;-65
2022/03/26 01:14:58;;;;;;;0.00;0.00;;;6.00;99.90;;;;;;5021486;28;20828;-65
2022/03/26 01:17:24;;;;;;;0.00;0.00;;;5.20;99.90;;;;;;5022230;28;20103;-65
2022/03/26 01:19:51;;;;;;;0.00;0.00;;;5.20;99.90;;;;;;5021897;28;20056;-65
2022/03/26 01:22:16;;;;;;;0.00;0.00;;;5.20;99.90;;;;;;5022294;28;20049;-66
2022/03/26 01:24:42;;;;;;;0.00;0.00;;;5.20;99.90;;;;;;5021830;28;20041;-65
2022/03/26 01:27:08;;;;;;;0.25;0.10;;;5.40;99.90;;;;;;5022452;28;20117;-65
2022/03/26 01:29:38;;;;;;;0.00;0.00;;;5.10;99.90;;;;;;5021535;28;20350;-66
2022/03/26 01:32:06;;;;;;;0.00;0.00;;;5.00;99.90;;;;;;5022872;28;20056;-66
2022/03/26 01:34:32;;;;;;;0.00;0.00;;;4.80;99.90;;;;;;5004729;28;20045;-66
2022/03/26 01:36:57;;;;;;;0.00;0.00;;;5.00;99.90;;;;;;5021703;28;20041;-66
2022/03/26 01:39:23;;;;;;;0.00;0.00;;;4.90;99.90;;;;;;5021798;28;20045;-65
2022/03/26 01:41:49;;;;;;;0.00;0.00;;;4.90;99.90;;;;;;5020552;28;20045;-65
2022/03/26 01:44:15;;;;;;;0.00;0.00;;;4.90;99.90;;;;;;5021400;28;20041;-66
2022/03/26 01:46:49;;;;;;;0.00;0.00;;;4.90;99.90;;;;;;5021496;28;20099;-65
2022/03/26 01:49:15;;;;;;;0.00;0.00;;;4.80;99.90;;;;;;5022227;28;20405;-66
2022/03/26 01:51:40;;;;;;;0.00;0.00;;;4.80;99.90;;;;;;5022222;28;20470;-66
2022/03/26 01:54:07;;;;;;;0.10;0.10;;;4.80;99.90;;;;;;5021601;28;20076;-66
2022/03/26 01:56:33;;;;;;;0.00;0.00;;;4.90;99.90;;;;;;5022274;28;20085;-66
2022/03/26 01:58:59;;;;;;;0.10;0.10;;;4.90;99.90;;;;;;5020790;28;20081;-65
2022/03/26 02:01:25;;;;;;;0.30;0.10;;;4.90;99.90;;;;;;5027937;28;20046;-66
2022/03/26 02:03:51;;;;;;;0.00;0.00;;;4.80;99.90;;;;;;5033835;28;20132;-66
2022/03/26 02:06:19;;;;;;;0.00;0.00;;;4.80;99.90;;;;;;5043784;22;20060;-66
2022/03/26 02:08:45;;;;;;;0.10;0.10;;;4.80;99.90;;;;;;5072635;28;20414;-65
2022/03/26 02:11:11;;;;;;;0.10;0.10;;;4.60;99.90;;;;;;5062994;28;20051;-66
2022/03/26 02:13:57;;;;;;;0.00;0.00;;;4.60;99.90;;;;;;5045137;28;20037;-66
2022/03/26 02:16:24;;;;;;;0.00;0.00;;;4.60;99.90;;;;;;5045868;28;20745;-65
2022/03/26 02:18:51;;;;;;;0.00;0.00;;;4.60;99.90;;;;;;5044981;28;20045;-65
2022/03/26 02:21:18;;;;;;;0.10;0.10;;;4.60;99.90;;;;;;5046309;28;20053;-66
2022/03/26 02:23:44;;;;;;;0.00;0.00;;;4.50;99.90;;;;;;5045566;28;20059;-64
2022/03/26 02:26:17;;;;;;;0.10;0.10;;;4.50;99.90;;;;;;5045247;28;20040;-65
2022/03/26 02:28:44;;;;;;;0.47;0.17;;;4.40;99.90;;;;;;5044677;28;20083;-66
2022/03/26 02:31:14;;;;;;;0.00;0.00;;;4.40;99.90;;;;;;5045576;28;20048;-66
2022/03/26 02:33:40;;;;;;;0.35;0.32;;;4.40;99.90;;;;;;5044672;28;20124;-65
2022/03/26 02:36:06;;;;;;;0.00;0.00;;;4.30;99.90;;;;;;5045763;28;20080;-65
2022/03/26 02:38:32;;;;;;;0.00;0.00;;;4.30;99.90;;;;;;5045705;28;20045;-66
2022/03/26 02:40:59;;;;;;;0.00;0.00;;;4.30;99.90;;;;;;5044915;28;20127;-65
2022/03/26 02:43:25;;;;;;;0.10;0.10;;;4.30;99.90;;;;;;5026493;28;20056;-66
2022/03/26 02:45:50;;;;;;;0.00;0.00;;;4.70;99.90;;;;;;5045027;28;20826;-66
2022/03/26 02:48:16;;;;;;;0.00;0.00;;;4.40;99.90;;;;;;5045049;28;20135;-66
2022/03/26 02:50:43;;;;;;;0.00;0.00;;;4.40;99.90;;;;;;5044656;28;20124;-66
2022/03/26 02:53:09;;;;;;;0.00;0.00;;;4.40;99.90;;;;;;5045532;28;20060;-66
2022/03/26 02:55:35;;;;;;;0.00;0.00;;;4.50;99.90;;;;;;5045086;28;20825;-66
2022/03/26 02:58:02;;;;;;;0.00;0.00;;;4.40;99.90;;;;;;5044427;28;20041;-65
2022/03/26 03:00:28;;;;;;;0.00;0.00;;;4.40;99.90;;;;;;5044687;28;20043;-66
2022/03/26 03:02:54;;;;;;;0.22;0.22;;;4.30;99.90;;;;;;5055631;28;20079;-66
2022/03/26 03:05:20;;;;;;;0.00;0.00;;;4.30;99.90;;;;;;5044900;28;20064;-66
2022/03/26 03:07:45;;;;;;;0.00;0.00;;;4.20;99.90;;;;;;5044197;28;20593;-65
2022/03/26 03:10:15;;;;;;;0.00;0.00;;;4.20;99.90;;;;;;5044538;28;20041;-66
2022/03/26 03:12:45;;;;;;;0.70;0.52;;;4.10;99.90;;;;;;5043754;28;20044;-66
2022/03/26 03:15:11;;;;;;;0.00;0.00;;;4.10;99.90;;;;;;5010272;28;20094;-66
2022/03/26 03:17:39;;;;;;;0.10;0.10;;;4.20;99.90;;;;;;5044054;28;20045;-66
2022/03/26 03:20:09;;;;;;;0.03;0.03;;;4.20;99.90;;;;;;5044976;28;20399;-60
2022/03/26 03:22:38;;;;;;;0.00;0.00;;;4.30;99.90;;;;;;5043393;28;20131;-64
2022/03/26 03:25:05;;;;;;;0.00;0.00;;;4.30;99.90;;;;;;5044294;28;20051;-66
2022/03/26 03:27:31;;;;;;;0.00;0.00;;;4.30;99.90;;;;;;5044792;28;20455;-66
2022/03/26 03:29:57;;;;;;;0.00;0.00;;;4.30;99.90;;;;;;5025403;28;20049;-66
2022/03/26 03:32:22;;;;;;;0.10;0.10;;;4.30;99.90;;;;;;5044036;28;20036;-66
2022/03/26 03:34:48;;;;;;;0.00;0.00;;;4.30;99.90;;;;;;5042946;28;20055;-65
2022/03/26 03:37:13;;;;;;;0.00;0.00;;;4.30;99.90;;;;;;5026405;28;20128;-66
2022/03/26 03:39:39;;;;;;;0.00;0.00;;;4.30;99.90;;;;;;5044133;28;20041;-65
2022/03/26 03:42:05;;;;;;;0.20;0.20;;;4.20;99.90;;;;;;5043731;28;20120;-66
2022/03/26 03:44:31;;;;;;;0.00;0.00;;;4.30;99.90;;;;;;5043916;28;20135;-65
2022/03/26 03:46:57;;;;;;;0.00;0.00;;;4.30;99.90;;;;;;5043794;28;20552;-65
2022/03/26 03:49:23;;;;;;;0.00;0.00;;;4.30;99.90;;;;;;5044395;28;20102;-65
2022/03/26 03:51:49;;;;;;;0.10;0.10;;;4.30;99.90;;;;;;5043220;28;20037;-65
2022/03/26 03:54:15;;;;;;;0.00;0.00;;;4.30;99.90;;;;;;5043990;28;20103;-65
2022/03/26 03:56:41;;;;;;;0.00;0.00;;;4.30;99.90;;;;;;5043748;28;20049;-66
2022/03/26 03:59:07;;;;;;;0.00;0.00;;;4.40;99.90;;;;;;5042823;28;20120;-66
2022/03/26 04:01:33;;;;;;;0.00;0.00;;;4.40;99.90;;;;;;5047120;28;20063;-65
2022/03/26 04:03:59;;;;;;;0.00;0.00;;;4.40;99.90;;;;;;5051925;28;20041;-65
2022/03/26 04:06:25;;;;;;;0.00;0.00;;;4.40;99.90;;;;;;5043793;28;20337;-65
2022/03/26 04:08:51;;;;;;;0.00;0.00;;;4.30;99.90;;;;;;5042977;28;20048;-65
2022/03/26 04:11:16;;;;;;;0.00;0.00;;;4.30;99.90;;;;;;5043848;28;20049;-64
2022/03/26 04:13:42;;;;;;;0.00;0.00;;;4.30;99.90;;;;;;5024860;28;20099;-65
2022/03/26 04:16:07;;;;;;;0.00;0.00;;;4.40;99.90;;;;;;5043280;28;20199;-65
2022/03/26 04:18:34;;;;;;;0.00;0.00;;;4.30;99.90;;;;;;5026651;28;20110;-65
2022/03/26 04:21:00;;;;;;;0.00;0.00;;;4.30;99.90;;;;;;5043538;28;20053;-65
2022/03/26 04:23:26;;;;;;;0.00;0.00;;;4.20;99.90;;;;;;5042465;28;20095;-65
2022/03/26 04:25:51;;;;;;;0.32;0.20;;;4.10;99.90;;;;;;5042592;28;20048;-65
2022/03/26 04:28:17;;;;;;;0.00;0.00;;;4.10;99.90;;;;;;5043005;28;20048;-65
2022/03/26 04:30:43;;;;;;;0.00;0.00;;;4.10;99.90;;;;;;5042907;28;20643;-62
2022/03/26 04:33:09;;;;;;;0.00;0.00;;;4.10;99.90;;;;;;5043555;28;20041;-65
2022/03/26 04:35:35;;;;;;;0.00;0.00;;;4.20;99.90;;;;;;5042954;28;20037;-59
2022/03/26 04:38:01;;;;;;;0.00;0.00;;;4.20;99.90;;;;;;5043560;28;20120;-65
2022/03/26 04:40:28;;;;;;;0.00;0.00;;;4.20;99.90;;;;;;5025460;28;20053;-65
2022/03/26 04:42:55;;;;;;;0.00;0.00;;;4.20;99.90;;;;;;5041869;28;20049;-65
2022/03/26 04:45:20;;;;;;;0.00;0.00;;;4.20;99.90;;;;;;5042911;28;20482;-64
2022/03/26 04:47:47;;;;;;;0.00;0.00;;;4.20;99.90;;;;;;5042674;28;20080;-64
2022/03/26 04:50:12;;;;;;;0.00;0.00;;;4.20;99.90;;;;;;5025498;28;20041;-64
2022/03/26 04:52:38;;;;;;;0.00;0.00;;;4.50;99.90;;;;;;5024635;28;20041;-64
2022/03/26 04:55:09;;;;;;;0.10;0.10;;;4.10;99.90;;;;;;5043025;28;20503;-64
2022/03/26 04:57:42;;;;;;;0.00;0.00;;;4.00;99.90;;;;;;5042561;28;20056;-59
2022/03/26 05:00:09;;;;;;;0.00;0.00;;;4.00;99.90;;;;;;5041994;28;20635;-65
2022/03/26 05:02:39;;;;;;;0.00;0.00;;;4.00;99.90;;;;;;5053698;28;20052;-65
2022/03/26 05:05:12;;;;;;;0.00;0.00;;;4.10;99.90;;;;;;5042846;28;20395;-65
2022/03/26 05:07:47;;;;;;;0.00;0.00;;;4.00;99.90;;;;;;5040295;28;20126;-64
2022/03/26 05:10:24;;;;;;;0.00;0.00;;;4.00;99.90;;;;;;5042762;28;20052;-64
2022/03/26 05:12:51;;;;;;;0.00;0.00;;;4.00;99.90;;;;;;5023319;28;20068;-65
2022/03/26 05:15:19;;;;;;;0.00;0.00;;;4.10;99.90;;;;;;5042604;28;20498;-64
2022/03/26 05:17:44;;;;;;;0.00;0.00;;;4.10;99.90;;;;;;5024649;28;20063;-64
2022/03/26 05:20:12;;;;;;;0.00;0.00;;;4.10;99.90;;;;;;5024283;28;20049;-65
2022/03/26 05:22:42;;;;;;;0.00;0.00;;;4.00;99.90;;;;;;5041790;28;20423;-65
2022/03/26 05:25:09;;;;;;;0.00;0.00;;;4.00;99.90;;;;;;5041995;28;20041;-65
2022/03/26 05:27:36;;;;;;;0.00;0.00;;;4.20;99.90;;;;;;5041750;28;20427;-59
2022/03/26 05:30:05;;;;;;;0.00;0.00;;;4.00;99.90;;;;;;5041945;28;20072;-65
2022/03/26 05:32:32;;;;;;;0.00;0.00;;;4.10;99.90;;;;;;5042700;28;20045;-65
2022/03/26 05:34:57;;;;;;;0.00;0.00;;;4.00;99.90;;;;;;5041480;28;20049;-65
2022/03/26 05:37:23;;;;;;;0.00;0.00;;;4.50;99.90;;;;;;5041885;28;20492;-65
2022/03/26 05:39:49;;;;;;;0.00;0.00;;;4.10;99.90;;;;;;5042016;28;20399;-65
2022/03/26 05:42:15;;;;;;;0.00;0.00;;;4.20;99.90;;;;;;5042354;28;20049;-67
2022/03/26 05:44:40;;;;;;;0.00;0.00;;;4.20;99.90;;;;;;5041349;28;20041;-65
2022/03/26 05:47:06;;;;;;;0.00;0.00;;;4.40;99.90;;;;;;5041451;28;20046;-65
2022/03/26 05:49:32;;;;;;;0.00;0.00;;;4.30;99.90;;;;;;5042289;28;20048;-66
2022/03/26 05:51:58;;;;;;;0.00;0.00;;;4.30;99.90;;;;;;5042013;28;20049;-65
2022/03/26 05:54:23;;;;;;;0.00;0.00;;;4.40;99.90;;;;;;5041699;28;20033;-66
2022/03/26 05:56:52;;;;;;;0.00;0.00;;;4.60;99.90;;;;;;5041477;28;20048;-65
2022/03/26 05:59:23;;;;;;;0.20;0.20;;;4.50;99.90;;;;;;5040023;28;20041;-65
2022/03/26 06:01:50;;;;;;;0.00;0.00;;;5.70;99.90;;;;;;5046606;28;20613;-65
2022/03/26 06:04:16;;;;;;;0.75;0.35;;;4.60;99.90;;;;;;5047904;28;20123;-65
2022/03/26 06:06:43;;;;;;;0.00;0.00;;;4.60;99.90;;;;;;5040102;28;20053;-65
2022/03/26 06:09:09;;;;;;;0.00;0.00;;;4.60;99.90;;;;;;5041866;28;20691;-66
2022/03/26 06:11:34;;;;;;;0.10;0.10;;;4.70;99.90;;;;;;5041846;28;20430;-66
2022/03/26 06:14:00;;;;;;;0.00;0.00;;;4.70;99.90;;;;;;5041343;28;20052;-65
2022/03/26 06:16:26;;;;;;;0.00;0.00;;;4.70;99.90;;;;;;5023727;28;20048;-65
2022/03/26 06:18:52;;;;;;;0.00;0.00;;;4.90;99.90;;;;;;5041737;28;20041;-67
2022/03/26 06:21:17;;;;;;;0.00;0.00;;;5.00;99.90;;;;;;5041447;28;20064;-66
2022/03/26 06:23:43;;;;;;;0.10;0.10;;;5.20;99.90;;;;;;5041185;28;20045;-60
2022/03/26 06:26:09;;;;;;;0.10;0.10;;;5.30;99.90;;;;;;5041836;28;20040;-65
2022/03/26 06:28:35;;;;;;;0.10;0.10;;;5.40;99.90;;;;;;5040732;28;20107;-66
2022/03/26 06:31:01;;;;;;;0.00;0.00;;;5.50;99.90;;;;;;5041851;28;20138;-65
2022/03/26 06:33:26;;;;;;;0.00;0.00;;;5.60;99.90;;;;;;5041798;28;20066;-65
2022/03/26 06:35:52;;;;;;;0.45;0.20;;;5.80;99.90;;;;;;5041203;28;20047;-65
2022/03/26 06:38:18;;;;;;;0.00;0.00;;;5.90;99.90;;;;;;5022762;28;20049;-66
2022/03/26 06:40:43;;;;;;;0.57;0.50;;;5.90;99.90;;;;;;5041058;28;20096;-65
2022/03/26 06:43:09;;;;;;;0.45;0.45;;;5.90;99.90;;;;;;5040939;28;20045;-65
2022/03/26 06:45:36;;;;;;;0.85;0.80;;;5.90;99.90;;;;;;5041426;28;20047;-65
2022/03/26 06:48:02;;;;;;;0.17;0.08;;;6.00;99.90;;;;;;5026282;28;20045;-65
2022/03/26 06:50:28;;;;;;;0.38;0.10;;;6.10;99.90;;;;;;5045518;28;20037;-65
2022/03/26 06:52:55;;;;;;;0.05;0.05;;;6.30;99.90;;;;;;5044694;28;20122;-65
2022/03/26 06:55:21;;;;;;;0.22;0.10;;;6.50;99.90;;;;;;5044364;28;20041;-66
2022/03/26 06:57:49;;;;;;;0.38;0.38;;;6.70;99.90;;;;;;5043820;28;20091;-65
2022/03/26 07:00:16;;;;;;;2.95;0.43;;;6.80;99.90;;;;;;5027308;28;20147;-66
2022/03/26 07:02:42;;;;;;;0.20;0.20;;;6.80;99.90;;;;;;5055821;28;20044;-65
2022/03/26 07:05:09;;;;;;;0.08;0.08;;;6.80;99.90;;;;;;5026340;28;20075;-65
2022/03/26 07:07:35;;;;;;;0.00;0.00;;;6.80;99.90;;;;;;5045109;28;20473;-61
2022/03/26 07:10:01;;;;;;;0.73;0.73;;;6.80;99.90;;;;;;5044927;28;20144;-66
2022/03/26 07:12:29;;;;;;;0.00;0.00;;;6.90;99.90;;;;;;5043339;28;20129;-65
2022/03/26 07:14:56;;;;;;;0.00;0.00;;;6.90;99.90;;;;;;5044368;28;20126;-65
2022/03/26 07:17:22;;;;;;;0.00;0.00;;;7.00;99.90;;;;;;5044945;28;20045;-66
2022/03/26 07:19:48;;;;;;;0.00;0.00;;;7.10;99.90;;;;;;5044091;28;20041;-65
2022/03/26 07:22:14;;;;;;;0.20;0.20;;;7.10;99.90;;;;;;5026490;28;20094;-65
2022/03/26 07:24:40;;;;;;;0.00;0.00;;;7.20;99.90;;;;;;5044269;28;20040;-65
2022/03/26 07:27:06;;;;;;;0.00;0.00;;;7.40;99.90;;;;;;5043692;28;20080;-66
2022/03/26 07:29:35;;;;;;;0.10;0.10;;;7.50;99.90;;;;;;5044216;28;20083;-64
2022/03/26 07:32:01;;;;;;;0.03;0.03;;;7.60;99.90;;;;;;5044558;28;20059;-65
2022/03/26 07:34:27;;;;;;;1.13;0.32;;;7.80;99.90;;;;;;5044614;28;20116;-65
2022/03/26 07:36:53;;;;;;;0.00;0.00;;;8.00;99.90;;;;;;5043848;28;20041;-67
2022/03/26 07:39:19;;;;;;;0.00;0.00;;;8.10;99.90;;;;;;5043837;28;20080;-65
2022/03/26 07:41:45;;;;;;;0.00;0.00;;;8.20;99.90;;;;;;5043963;28;20182;-67
2022/03/26 07:44:11;;;;;;;0.00;0.00;;;8.40;99.90;;;;;;5025458;28;20048;-66
2022/03/26 07:46:36;;;;;;;0.00;0.00;;;8.50;99.90;;;;;;5041024;28;20494;-66
2022/03/26 07:49:03;;;;;;;0.10;0.10;;;8.50;99.90;;;;;;5062696;28;20074;-66
2022/03/26 07:51:28;;;;;;;0.00;0.00;;;8.60;99.90;;;;;;5062117;28;20064;-66
2022/03/26 07:53:54;;;;;;;0.28;0.28;;;8.70;99.90;;;;;;5025368;28;20079;-66
2022/03/26 07:56:19;;;;;;;0.28;0.28;;;8.80;99.90;;;;;;5042742;28;20053;-66
2022/03/26 07:58:47;;;;;;;0.00;0.00;;;8.90;99.90;;;;;;5042186;28;20135;-65
2022/03/26 08:01:12;;;;;;;0.00;0.00;;;9.00;99.90;;;;;;5046247;28;20048;-66
2022/03/26 08:03:38;;;;;;;0.00;0.00;;;9.10;99.90;;;;;;5051976;28;20471;-66
2022/03/26 08:06:04;;;;;;;0.00;0.00;;;9.10;99.90;;;;;;5058890;28;20068;-66
2022/03/26 08:08:29;;;;;;;0.10;0.10;;;9.20;99.90;;;;;;5063669;28;20495;-66
2022/03/26 08:10:55;;;;;;;0.00;0.00;;;9.30;99.90;;;;;;5062733;28;20082;-65
2022/03/26 08:13:21;;;;;;;0.00;0.00;;;9.40;99.90;;;;;;5062742;28;20040;-65
2022/03/26 08:15:46;;;;;;;0.00;0.00;;;9.50;99.90;;;;;;5062790;28;20089;-65
2022/03/26 08:18:12;;;;;;;0.10;0.10;;;9.60;99.90;;;;;;5055586;28;20144;-66
2022/03/26 08:20:38;;;;;;;0.00;0.00;;;9.70;99.90;;;;;;5043231;28;20049;-66
2022/03/26 08:23:04;;;;;;;0.00;0.00;;;9.80;99.90;;;;;;5025740;28;20095;-66
2022/03/26 08:28:14;;;;;;;0.00;0.00;;;10.10;99.90;;;;;;5042897;28;20133;-66
2022/03/26 08:30:41;;;;;;;0.00;0.00;;;10.20;99.90;;;;;;5024982;28;20579;-65
2022/03/26 08:33:06;;;;;;;0.13;0.13;;;10.30;99.90;;;;;;5043214;28;20040;-66
2022/03/26 08:35:42;;;;;;;0.00;0.00;;;10.40;99.90;;;;;;5025876;28;20062;-66
2022/03/26 08:38:08;;;;;;;0.00;0.00;;;10.50;99.90;;;;;;5042869;28;20044;-66
2022/03/26 08:40:35;;;;;;;0.00;0.00;;;10.60;99.90;;;;;;5043827;28;20120;-66
2022/03/26 08:43:01;;;;;;;0.10;0.10;;;10.90;99.90;;;;;;5042713;28;20575;-65
2022/03/26 08:45:27;;;;;;;0.00;0.00;;;10.80;99.90;;;;;;5042817;28;20091;-65
2022/03/26 08:47:53;;;;;;;0.00;0.00;;;11.00;99.90;;;;;;5042774;28;20124;-67
2022/03/26 08:50:19;;;;;;;0.00;0.00;;;11.40;99.90;;;;;;5043128;28;20447;-64
2022/03/26 08:52:47;;;;;;;0.00;0.00;;;11.20;99.90;;;;;;5025208;28;20060;-65
2022/03/26 08:55:17;;;;;;;0.00;0.00;;;11.40;99.90;;;;;;5042663;28;20041;-66
2022/03/26 08:57:43;;;;;;;0.00;0.00;;;11.50;99.90;;;;;;5041832;28;20041;-66
2022/03/26 09:00:10;;;;;;;0.00;0.00;;;11.70;99.90;;;;;;5042880;28;20124;-66
2022/03/26 09:02:37;;;;;;;0.00;0.00;;;11.90;99.90;;;;;;5053647;28;20048;-67
2022/03/26 09:05:06;;;;;;;0.00;0.00;;;12.10;99.90;;;;;;5042704;28;20098;-65
2022/03/26 09:07:32;;;;;;;0.00;0.00;;;12.20;99.90;;;;;;5042799;28;20079;-66
2022/03/26 09:09:58;;;;;;;0.00;0.00;;;12.50;99.90;;;;;;5041786;28;20057;-66
2022/03/26 09:12:23;;;;;;;0.00;0.00;;;13.30;99.90;;;;;;5041708;28;20445;-65
2022/03/26 09:14:49;;;;;;;0.00;0.00;;;14.10;99.90;;;;;;5040773;28;20043;-66
2022/03/26 09:17:15;;;;;;;0.00;0.00;;;15.00;99.90;;;;;;5042550;28;20521;-65
2022/03/26 09:19:40;;;;;;;0.00;0.00;;;15.50;99.90;;;;;;5041696;28;20048;-66
2022/03/26 09:22:06;;;;;;;0.00;0.00;;;16.20;99.90;;;;;;5042338;28;20072;-66
2022/03/26 09:24:32;;;;;;;0.03;0.03;;;16.40;99.90;;;;;;5041553;28;20686;-66
2022/03/26 09:26:57;;;;;;;0.00;0.00;;;16.70;99.90;;;;;;5041336;28;20674;-65
2022/03/26 09:29:23;;;;;;;0.00;0.00;;;16.80;99.90;;;;;;5024210;28;20076;-66
2022/03/26 09:31:48;;;;;;;0.00;0.00;;;16.90;99.90;;;;;;5041931;28;20091;-66
2022/03/26 09:34:14;;;;;;;0.00;0.00;;;17.20;99.90;;;;;;5042224;28;20037;-66
2022/03/26 09:36:40;;;;;;;0.22;0.20;;;17.30;99.90;;;;;;5041777;28;20080;-66
2022/03/26 09:39:06;;;;;;;0.00;0.00;;;17.40;99.90;;;;;;5041852;28;20037;-66
2022/03/26 09:41:32;;;;;;;0.00;0.00;;;17.40;99.90;;;;;;5042699;28;20049;-66
2022/03/26 09:43:58;;;;;;;0.00;0.00;;;17.00;99.90;;;;;;5041095;28;20047;-65
2022/03/26 09:46:24;;;;;;;0.00;0.00;;;17.40;99.90;;;;;;5041668;28;20731;-66
2022/03/26 09:48:51;;;;;;;0.10;0.10;;;17.60;99.90;;;;;;5041842;28;20052;-66
2022/03/26 09:51:21;;;;;;;0.00;0.00;;;17.60;99.90;;;;;;5040845;28;20055;-66
2022/03/26 09:53:50;;;;;;;0.00;0.00;;;17.90;99.90;;;;;;5041261;28;20178;-65
2022/03/26 09:56:17;;;;;;;0.00;0.00;;;18.10;99.90;;;;;;5042309;28;20112;-65
2022/03/26 09:58:42;;;;;;;0.10;0.10;;;18.30;99.90;;;;;;5023161;28;20090;-65
2022/03/26 10:01:08;;;;;;;0.00;0.00;;;18.00;99.90;;;;;;5044452;28;20032;-65
2022/03/26 10:03:35;;;;;;;0.00;0.00;;;18.10;99.90;;;;;;5050524;28;20068;-65
2022/03/26 10:06:05;;;;;;;0.95;0.55;;;18.40;99.90;;;;;;5041757;28;20049;-65
2022/03/26 10:08:35;;;;;;;0.10;0.10;;;18.40;99.90;;;;;;5042313;28;20398;-65
2022/03/26 10:11:01;;;;;;;0.00;0.00;;;18.30;99.90;;;;;;5040492;28;20079;-64
2022/03/26 10:13:42;;;;;;;0.00;0.00;;;18.50;99.90;;;;;;5041510;28;20091;-65
2022/03/26 10:16:13;;;;;;;0.00;0.00;;;18.40;99.90;;;;;;5042020;28;20056;-65
2022/03/26 10:18:43;;;;;;;0.00;0.00;;;18.60;99.90;;;;;;5041698;28;20040;-62
2022/03/26 10:21:12;;;;;;;0.00;0.00;;;18.80;99.90;;;;;;5041778;28;20095;-65
2022/03/26 10:23:41;;;;;;;0.10;0.10;;;18.80;99.90;;;;;;5044394;28;20106;-66
2022/03/26 10:26:18;;;;;;;0.00;0.00;;;18.40;99.90;;;;;;5045431;28;20049;-64
2022/03/26 10:28:51;;;;;;;0.00;0.00;;;18.70;99.90;;;;;;5044822;28;20045;-65
2022/03/26 10:34:08;;;;;;;0.00;0.00;;;18.60;99.90;;;;;;5044586;28;20053;-62
2022/03/26 10:36:55;;;;;;;0.00;0.00;;;18.80;99.90;;;;;;5045221;28;20477;-63
2022/03/26 10:39:23;;;;;;;0.00;0.00;;;19.00;99.90;;;;;;5027594;28;20045;-64
2022/03/26 10:41:52;;;;;;;0.20;0.20;;;19.00;99.90;;;;;;5043991;28;20407;-61
2022/03/26 10:44:22;;;;;;;0.00;0.00;;;19.00;99.90;;;;;;5045428;28;20037;-61
2022/03/26 10:46:51;;;;;;;0.00;0.00;;;19.10;99.90;;;;;;5027266;28;20064;-61
2022/03/26 10:49:37;;;;;;;0.00;0.00;;;19.50;99.90;;;;;;5026842;28;20049;-62
2022/03/26 10:52:16;;;;;;;0.00;0.00;;;18.70;99.90;;;;;;5045471;28;20045;-61
2022/03/26 10:54:42;;;;;;;0.00;0.00;;;19.00;99.90;;;;;;5026506;28;20090;-61
2022/03/26 10:57:08;;;;;;;0.00;0.00;;;18.90;99.90;;;;;;5044298;28;20052;-62
2022/03/26 10:59:34;;;;;;;0.00;0.00;;;18.80;99.90;;;;;;5045521;28;20098;-62
2022/03/26 11:02:00;;;;;;;0.00;0.00;;;18.60;99.90;;;;;;5051401;28;20045;-61
2022/03/26 11:04:27;;;;;;;0.00;0.00;;;18.50;99.90;;;;;;5049118;28;20040;-62
2022/03/26 11:06:54;;;;;;;0.10;0.10;;;18.40;99.90;;;;;;5044578;28;20056;-61
2022/03/26 11:09:20;;;;;;;0.00;0.00;;;18.60;99.90;;;;;;5044876;28;20509;-63
2022/03/26 11:11:49;;;;;;;0.00;0.00;;;18.50;99.90;;;;;;5042840;28;20052;-63
2022/03/26 11:14:19;;;;;;;0.10;0.00;;;18.40;99.90;;;;;;5044399;28;20056;-63
2022/03/26 11:17:05;;;;;;;0.00;0.00;;;18.50;99.90;;;;;;5026157;28;20049;-63
2022/03/26 11:20:22;;;;;;;0.17;0.17;;;18.40;99.90;;;;;;5043584;28;20088;-63
2022/03/26 11:23:17;;;;;;;0.10;0.10;;;18.90;99.90;;;;;;5010204;28;20080;-64
2022/03/26 11:25:49;;;;;;;;;;;19.20;99.90;;;;;;5044143;28;20071;-64
2022/03/26 11:29:03;;;;;;;0.00;0.00;;;19.20;99.90;;;;;;5043624;28;19921;-63
2022/03/26 11:31:33;;;;;;;0.00;0.00;;;19.00;99.90;;;;;;5013317;28;20134;-64
2022/03/26 11:34:05;;;;;;;0.00;0.00;;;18.90;99.90;;;;;;5025400;28;20044;-63
2022/03/26 11:36:31;;;;;;;0.00;0.00;;;18.90;99.90;;;;;;5043791;28;20049;-64
2022/03/26 11:39:12;;;;;;;0.13;0.10;;;19.20;99.90;;;;;;5043770;28;20033;-62
2022/03/26 11:41:39;;;;;;;0.20;0.10;;;18.60;99.90;;;;;;5045300;28;20037;-62
2022/03/26 11:44:06;;;;;;;0.00;0.00;;;18.40;99.90;;;;;;5031919;28;20049;-62
2022/03/26 11:52:23;;;;;;;0.00;0.00;;;18.70;99.90;;;;;;5043534;28;20057;-62
2022/03/26 11:55:24;;;;;;;0.00;0.00;;;18.80;99.90;;;;;;5042749;28;20098;-63
2022/03/26 11:58:16;;;;;;;0.00;0.00;;;18.50;99.90;;;;;;5023651;28;20061;-62
2022/03/26 12:01:00;;;;;;;0.00;0.00;;;18.50;99.90;;;;;;5026144;28;20048;-63
2022/03/26 12:03:28;;;;;;;0.00;0.00;;;18.30;99.90;;;;;;5043504;28;20048;-63
2022/03/26 12:08:55;;;;;;;0.00;0.00;;;18.10;99.90;;;;;;5025171;28;20045;-63
2022/03/26 12:11:31;;;;;;;0.00;0.00;;;18.00;99.90;;;;;;5025060;28;20298;-63
2022/03/26 12:14:05;;;;;;;0.00;0.00;;;17.90;99.90;;;;;;5042566;28;20045;-63
2022/03/26 12:16:49;;;;;;;0.00;0.00;;;17.70;99.90;;;;;;5025982;28;20442;-63
2022/03/26 12:19:46;;;;;;;0.00;0.00;;;17.60;99.90;;;;;;5025327;28;20637;-63
2022/03/26 12:22:26;;;;;;;0.00;0.00;;;17.40;99.90;;;;;;5025520;28;20780;-64
2022/03/26 12:24:56;;;;;;;0.00;0.00;;;17.20;99.90;;;;;;5042636;28;20124;-64
2022/03/26 12:27:23;;;;;;;0.00;0.00;;;17.10;99.90;;;;;;5042427;28;20111;-64
2022/03/26 12:29:49;;;;;;;0.00;0.00;;;17.00;99.90;;;;;;5042752;28;20090;-63
2022/03/26 12:32:17;;;;;;;0.00;0.00;;;17.10;99.90;;;;;;5043220;28;20085;-63
2022/03/26 12:34:53;;;;;;;0.00;0.00;;;17.20;99.90;;;;;;5025145;28;20044;-65
2022/03/26 12:37:20;;;;;;;0.00;0.00;;;17.20;99.90;;;;;;5008304;28;20041;-63
2022/03/26 12:39:46;;;;;;;0.00;0.00;;;17.10;99.90;;;;;;5042729;28;20033;-64
2022/03/26 12:42:11;;;;;;;0.00;0.00;;;17.00;99.90;;;;;;5042306;28;20051;-64
2022/03/26 12:44:37;;;;;;;0.00;0.00;;;17.10;99.90;;;;;;5042001;28;20048;-64
2022/03/26 12:47:03;;;;;;;0.00;0.00;;;17.20;99.90;;;;;;5042231;28;20045;-63
2022/03/26 12:49:29;;;;;;;0.00;0.00;;;17.20;99.90;;;;;;5025051;28;20049;-63
2022/03/26 12:51:55;;;;;;;0.00;0.00;;;17.00;99.90;;;;;;5042275;28;20175;-64
2022/03/26 12:54:22;;;;;;;0.00;0.00;;;17.00;99.90;;;;;;5042980;28;20044;-63
2022/03/26 12:56:51;;;;;;;0.00;0.00;;;16.90;99.90;;;;;;5041122;28;20135;-63
2022/03/26 12:59:17;;;;;;;0.00;0.00;;;16.90;99.90;;;;;;5042879;28;20375;-64
2022/03/26 13:01:43;;;;;;;0.00;0.00;;;16.80;99.90;;;;;;5046278;28;20075;-63
2022/03/26 13:04:09;;;;;;;0.20;0.10;;;16.90;99.90;;;;;;5030946;28;20052;-63
2022/03/26 13:06:35;;;;;;;0.00;0.00;;;16.90;99.90;;;;;;5042277;28;20052;-65
2022/03/26 13:09:02;;;;;;;0.00;0.00;;;17.10;99.90;;;;;;5042843;28;20045;-65
2022/03/26 13:11:30;;;;;;;0.00;0.00;;;17.20;99.90;;;;;;5041971;28;20041;-65